sensor_id;sensor_type;location;lat;lon;timestamp;P1;durP1;ratioP1;P2;durP2;ratioP2
21825;SDS011;11075;47.944;11.776;2023-08-06T00:01:42;7.72;;;6.25;;
21825;SDS011;11075;47.944;11.776;2023-08-06T00:04:09;8.55;;;5.72;;
21825;SDS011;11075;47.944;11.776;2023-08-06T00:06:36;6.00;;;5.35;;
21825;SDS011;11075;47.944;11.776;2023-08-06T00:09:03;9.77;;;5.70;;
21825;SDS011;11075;47.944;11.776;2023-08-06T00:11:29;8.63;;;6.13;;
21825;SDS011;11075;47.944;11.776;2023-08-06T00:13:56;6.80;;;5.75;;
21825;SDS011;11075;47.944;11.776;2023-08-06T00:16:23;6.65;;;5.18;;
21825;SDS011;11075;47.944;11.776;2023-08-06T00:18:50;7.50;;;5.80;;
21825;SDS011;11075;47.944;11.776;2023-08-06T00:21:17;6.35;;;5.63;;
21825;SDS011;11075;47.944;11.776;2023-08-06T00:23:44;7.50;;;5.95;;
21825;SDS011;11075;47.944;11.776;2023-08-06T00:26:11;9.65;;;5.65;;
21825;SDS011;11075;47.944;11.776;2023-08-06T00:28:38;8.68;;;5.35;;
21825;SDS011;11075;47.944;11.776;2023-08-06T00:31:04;11.52;;;5.60;;
21825;SDS011;11075;47.944;11.776;2023-08-06T00:33:32;8.10;;;4.80;;
21825;SDS011;11075;47.944;11.776;2023-08-06T00:35:59;8.80;;;5.10;;
21825;SDS011;11075;47.944;11.776;2023-08-06T00:38:26;7.63;;;4.45;;
21825;SDS011;11075;47.944;11.776;2023-08-06T00:40:53;9.68;;;5.47;;
21825;SDS011;11075;47.944;11.776;2023-08-06T00:43:19;6.93;;;4.50;;
21825;SDS011;11075;47.944;11.776;2023-08-06T00:45:46;6.35;;;4.65;;
21825;SDS011;11075;47.944;11.776;2023-08-06T00:48:13;12.68;;;4.93;;
21825;SDS011;11075;47.944;11.776;2023-08-06T00:50:40;6.72;;;4.50;;
21825;SDS011;11075;47.944;11.776;2023-08-06T00:53:08;7.30;;;4.35;;
21825;SDS011;11075;47.944;11.776;2023-08-06T00:55:35;10.18;;;4.63;;
21825;SDS011;11075;47.944;11.776;2023-08-06T00:58:02;8.30;;;4.07;;
21825;SDS011;11075;47.944;11.776;2023-08-06T01:00:29;4.10;;;3.63;;
21825;SDS011;11075;47.944;11.776;2023-08-06T01:02:56;6.10;;;4.55;;
21825;SDS011;11075;47.944;11.776;2023-08-06T01:05:23;7.43;;;4.78;;
21825;SDS011;11075;47.944;11.776;2023-08-06T01:08:13;6.78;;;4.80;;
21825;SDS011;11075;47.944;11.776;2023-08-06T01:13:50;6.70;;;4.82;;
21825;SDS011;11075;47.944;11.776;2023-08-06T01:16:26;6.78;;;5.00;;
21825;SDS011;11075;47.944;11.776;2023-08-06T01:18:53;6.15;;;4.75;;
21825;SDS011;11075;47.944;11.776;2023-08-06T01:21:19;8.77;;;5.28;;
21825;SDS011;11075;47.944;11.776;2023-08-06T01:23:46;5.63;;;4.50;;
21825;SDS011;11075;47.944;11.776;2023-08-06T01:26:18;7.03;;;4.90;;
21825;SDS011;11075;47.944;11.776;2023-08-06T01:29:03;5.90;;;4.57;;
21825;SDS011;11075;47.944;11.776;2023-08-06T01:31:37;5.63;;;4.93;;
21825;SDS011;11075;47.944;11.776;2023-08-06T01:34:06;8.18;;;4.53;;
21825;SDS011;11075;47.944;11.776;2023-08-06T01:36:36;5.88;;;4.55;;
21825;SDS011;11075;47.944;11.776;2023-08-06T01:39:04;6.85;;;4.95;;
21825;SDS011;11075;47.944;11.776;2023-08-06T01:41:31;4.82;;;4.20;;
21825;SDS011;11075;47.944;11.776;2023-08-06T01:43:58;8.35;;;4.80;;
21825;SDS011;11075;47.944;11.776;2023-08-06T01:46:25;8.07;;;4.57;;
21825;SDS011;11075;47.944;11.776;2023-08-06T01:48:52;6.15;;;4.55;;
21825;SDS011;11075;47.944;11.776;2023-08-06T01:51:19;8.07;;;4.55;;
21825;SDS011;11075;47.944;11.776;2023-08-06T01:53:46;8.13;;;4.70;;
21825;SDS011;11075;47.944;11.776;2023-08-06T01:56:12;8.55;;;4.60;;
21825;SDS011;11075;47.944;11.776;2023-08-06T01:58:39;4.88;;;4.38;;
21825;SDS011;11075;47.944;11.776;2023-08-06T02:01:06;5.28;;;4.32;;
21825;SDS011;11075;47.944;11.776;2023-08-06T02:03:33;6.80;;;3.88;;
21825;SDS011;11075;47.944;11.776;2023-08-06T02:06:00;4.10;;;3.70;;
21825;SDS011;11075;47.944;11.776;2023-08-06T02:08:27;5.03;;;4.00;;
21825;SDS011;11075;47.944;11.776;2023-08-06T02:10:54;5.75;;;3.88;;
21825;SDS011;11075;47.944;11.776;2023-08-06T02:13:20;5.18;;;3.58;;
21825;SDS011;11075;47.944;11.776;2023-08-06T02:15:47;4.13;;;3.72;;
21825;SDS011;11075;47.944;11.776;2023-08-06T02:18:15;4.95;;;3.92;;
21825;SDS011;11075;47.944;11.776;2023-08-06T02:20:42;7.95;;;4.00;;
21825;SDS011;11075;47.944;11.776;2023-08-06T02:23:09;4.30;;;3.90;;
21825;SDS011;11075;47.944;11.776;2023-08-06T02:25:36;3.67;;;3.33;;
21825;SDS011;11075;47.944;11.776;2023-08-06T02:28:03;5.53;;;3.72;;
21825;SDS011;11075;47.944;11.776;2023-08-06T02:30:30;4.60;;;3.42;;
21825;SDS011;11075;47.944;11.776;2023-08-06T02:32:58;4.88;;;3.42;;
21825;SDS011;11075;47.944;11.776;2023-08-06T02:35:26;6.30;;;3.25;;
21825;SDS011;11075;47.944;11.776;2023-08-06T02:37:53;3.53;;;3.22;;
21825;SDS011;11075;47.944;11.776;2023-08-06T02:40:21;7.25;;;3.80;;
21825;SDS011;11075;47.944;11.776;2023-08-06T02:42:48;5.78;;;3.30;;
21825;SDS011;11075;47.944;11.776;2023-08-06T02:45:15;5.70;;;3.30;;
21825;SDS011;11075;47.944;11.776;2023-08-06T02:47:42;3.57;;;3.00;;
21825;SDS011;11075;47.944;11.776;2023-08-06T02:50:09;6.13;;;3.30;;
21825;SDS011;11075;47.944;11.776;2023-08-06T02:52:36;5.75;;;3.60;;
21825;SDS011;11075;47.944;11.776;2023-08-06T02:55:06;6.25;;;3.17;;
21825;SDS011;11075;47.944;11.776;2023-08-06T02:57:36;4.40;;;2.95;;
21825;SDS011;11075;47.944;11.776;2023-08-06T03:00:03;5.55;;;3.13;;
21825;SDS011;11075;47.944;11.776;2023-08-06T03:02:31;5.50;;;2.70;;
21825;SDS011;11075;47.944;11.776;2023-08-06T03:05:12;9.20;;;3.10;;
21825;SDS011;11075;47.944;11.776;2023-08-06T03:07:42;3.42;;;3.08;;
21825;SDS011;11075;47.944;11.776;2023-08-06T03:10:15;3.28;;;2.70;;
21825;SDS011;11075;47.944;11.776;2023-08-06T03:12:43;4.22;;;2.58;;
21825;SDS011;11075;47.944;11.776;2023-08-06T03:15:10;4.28;;;2.75;;
21825;SDS011;11075;47.944;11.776;2023-08-06T03:17:37;3.92;;;2.72;;
21825;SDS011;11075;47.944;11.776;2023-08-06T03:20:06;5.20;;;2.40;;
21825;SDS011;11075;47.944;11.776;2023-08-06T03:22:34;2.85;;;2.45;;
21825;SDS011;11075;47.944;11.776;2023-08-06T03:25:01;3.08;;;2.75;;
21825;SDS011;11075;47.944;11.776;2023-08-06T03:27:28;5.03;;;2.58;;
21825;SDS011;11075;47.944;11.776;2023-08-06T03:29:55;2.60;;;2.38;;
21825;SDS011;11075;47.944;11.776;2023-08-06T03:32:25;3.28;;;2.75;;
21825;SDS011;11075;47.944;11.776;2023-08-06T03:34:53;3.03;;;2.53;;
21825;SDS011;11075;47.944;11.776;2023-08-06T03:37:21;3.05;;;2.65;;
21825;SDS011;11075;47.944;11.776;2023-08-06T03:39:50;3.55;;;2.60;;
21825;SDS011;11075;47.944;11.776;2023-08-06T03:42:17;3.63;;;2.67;;
21825;SDS011;11075;47.944;11.776;2023-08-06T03:44:44;3.60;;;2.50;;
21825;SDS011;11075;47.944;11.776;2023-08-06T03:47:10;11.20;;;2.83;;
21825;SDS011;11075;47.944;11.776;2023-08-06T03:49:37;4.65;;;2.60;;
21825;SDS011;11075;47.944;11.776;2023-08-06T03:52:06;5.90;;;2.43;;
21825;SDS011;11075;47.944;11.776;2023-08-06T03:54:33;4.43;;;2.38;;
21825;SDS011;11075;47.944;11.776;2023-08-06T03:57:00;2.63;;;2.42;;
21825;SDS011;11075;47.944;11.776;2023-08-06T03:59:27;2.33;;;2.13;;
21825;SDS011;11075;47.944;11.776;2023-08-06T04:01:55;2.53;;;2.33;;
21825;SDS011;11075;47.944;11.776;2023-08-06T04:04:22;2.80;;;2.50;;
21825;SDS011;11075;47.944;11.776;2023-08-06T04:06:49;3.42;;;2.42;;
21825;SDS011;11075;47.944;11.776;2023-08-06T04:09:16;4.10;;;2.53;;
21825;SDS011;11075;47.944;11.776;2023-08-06T04:11:43;2.90;;;2.20;;
21825;SDS011;11075;47.944;11.776;2023-08-06T04:14:10;2.88;;;2.60;;
21825;SDS011;11075;47.944;11.776;2023-08-06T04:16:37;2.88;;;2.22;;
21825;SDS011;11075;47.944;11.776;2023-08-06T04:19:04;2.92;;;2.25;;
21825;SDS011;11075;47.944;11.776;2023-08-06T04:21:32;3.85;;;2.83;;
21825;SDS011;11075;47.944;11.776;2023-08-06T04:23:59;6.90;;;2.35;;
21825;SDS011;11075;47.944;11.776;2023-08-06T04:26:26;2.53;;;2.10;;
21825;SDS011;11075;47.944;11.776;2023-08-06T04:28:53;5.47;;;2.20;;
21825;SDS011;11075;47.944;11.776;2023-08-06T04:31:20;4.75;;;2.50;;
21825;SDS011;11075;47.944;11.776;2023-08-06T04:33:48;3.90;;;2.60;;
21825;SDS011;11075;47.944;11.776;2023-08-06T04:36:15;2.90;;;2.50;;
21825;SDS011;11075;47.944;11.776;2023-08-06T04:38:43;3.13;;;2.55;;
21825;SDS011;11075;47.944;11.776;2023-08-06T04:41:14;2.57;;;2.30;;
21825;SDS011;11075;47.944;11.776;2023-08-06T04:43:41;2.55;;;2.35;;
21825;SDS011;11075;47.944;11.776;2023-08-06T04:46:08;6.13;;;2.35;;
21825;SDS011;11075;47.944;11.776;2023-08-06T04:48:35;4.53;;;2.42;;
21825;SDS011;11075;47.944;11.776;2023-08-06T04:51:02;2.75;;;2.40;;
21825;SDS011;11075;47.944;11.776;2023-08-06T04:53:29;3.65;;;2.20;;
21825;SDS011;11075;47.944;11.776;2023-08-06T04:55:56;3.33;;;2.30;;
21825;SDS011;11075;47.944;11.776;2023-08-06T04:58:22;2.70;;;2.47;;
21825;SDS011;11075;47.944;11.776;2023-08-06T05:00:49;2.58;;;2.00;;
21825;SDS011;11075;47.944;11.776;2023-08-06T05:03:16;2.70;;;2.20;;
21825;SDS011;11075;47.944;11.776;2023-08-06T05:05:43;2.10;;;1.90;;
21825;SDS011;11075;47.944;11.776;2023-08-06T05:08:15;4.60;;;1.90;;
21825;SDS011;11075;47.944;11.776;2023-08-06T05:10:45;4.65;;;2.00;;
21825;SDS011;11075;47.944;11.776;2023-08-06T05:13:12;4.57;;;2.05;;
21825;SDS011;11075;47.944;11.776;2023-08-06T05:15:39;2.60;;;1.90;;
21825;SDS011;11075;47.944;11.776;2023-08-06T05:18:09;2.28;;;1.92;;
21825;SDS011;11075;47.944;11.776;2023-08-06T05:20:36;3.10;;;1.70;;
21825;SDS011;11075;47.944;11.776;2023-08-06T05:23:04;2.17;;;1.80;;
21825;SDS011;11075;47.944;11.776;2023-08-06T05:25:30;2.17;;;1.85;;
21825;SDS011;11075;47.944;11.776;2023-08-06T05:27:58;2.08;;;1.88;;
21825;SDS011;11075;47.944;11.776;2023-08-06T05:30:24;2.60;;;1.55;;
21825;SDS011;11075;47.944;11.776;2023-08-06T05:32:51;5.20;;;1.88;;
21825;SDS011;11075;47.944;11.776;2023-08-06T05:35:18;2.25;;;1.80;;
21825;SDS011;11075;47.944;11.776;2023-08-06T05:37:45;7.45;;;1.75;;
21825;SDS011;11075;47.944;11.776;2023-08-06T05:40:12;2.28;;;1.63;;
21825;SDS011;11075;47.944;11.776;2023-08-06T05:42:39;1.95;;;1.67;;
21825;SDS011;11075;47.944;11.776;2023-08-06T05:45:06;2.72;;;1.35;;
21825;SDS011;11075;47.944;11.776;2023-08-06T05:47:34;2.38;;;1.63;;
21825;SDS011;11075;47.944;11.776;2023-08-06T05:50:01;3.78;;;1.50;;
21825;SDS011;11075;47.944;11.776;2023-08-06T05:52:27;2.10;;;1.67;;
21825;SDS011;11075;47.944;11.776;2023-08-06T05:54:54;3.78;;;1.80;;
21825;SDS011;11075;47.944;11.776;2023-08-06T05:57:21;1.92;;;1.73;;
21825;SDS011;11075;47.944;11.776;2023-08-06T05:59:48;1.73;;;1.38;;
21825;SDS011;11075;47.944;11.776;2023-08-06T06:02:15;2.55;;;1.50;;
21825;SDS011;11075;47.944;11.776;2023-08-06T06:04:42;2.35;;;1.45;;
21825;SDS011;11075;47.944;11.776;2023-08-06T06:07:09;2.15;;;1.83;;
21825;SDS011;11075;47.944;11.776;2023-08-06T06:09:36;2.30;;;1.63;;
21825;SDS011;11075;47.944;11.776;2023-08-06T06:12:03;2.25;;;1.40;;
21825;SDS011;11075;47.944;11.776;2023-08-06T06:14:30;3.83;;;1.38;;
21825;SDS011;11075;47.944;11.776;2023-08-06T06:16:56;1.58;;;1.20;;
21825;SDS011;11075;47.944;11.776;2023-08-06T06:19:23;1.80;;;1.30;;
21825;SDS011;11075;47.944;11.776;2023-08-06T06:21:53;1.67;;;1.30;;
21825;SDS011;11075;47.944;11.776;2023-08-06T06:24:20;2.05;;;1.40;;
21825;SDS011;11075;47.944;11.776;2023-08-06T06:26:47;1.77;;;1.33;;
21825;SDS011;11075;47.944;11.776;2023-08-06T06:29:14;2.38;;;1.30;;
21825;SDS011;11075;47.944;11.776;2023-08-06T06:31:41;1.63;;;1.23;;
21825;SDS011;11075;47.944;11.776;2023-08-06T06:34:08;2.17;;;1.30;;
21825;SDS011;11075;47.944;11.776;2023-08-06T06:36:34;3.65;;;1.60;;
21825;SDS011;11075;47.944;11.776;2023-08-06T06:39:01;1.52;;;1.30;;
21825;SDS011;11075;47.944;11.776;2023-08-06T06:41:28;1.73;;;1.40;;
21825;SDS011;11075;47.944;11.776;2023-08-06T06:44:03;2.70;;;1.60;;
21825;SDS011;11075;47.944;11.776;2023-08-06T06:46:30;2.72;;;1.30;;
21825;SDS011;11075;47.944;11.776;2023-08-06T06:48:57;1.50;;;0.93;;
21825;SDS011;11075;47.944;11.776;2023-08-06T06:51:24;1.30;;;1.13;;
21825;SDS011;11075;47.944;11.776;2023-08-06T06:53:51;1.50;;;1.17;;
21825;SDS011;11075;47.944;11.776;2023-08-06T06:56:17;4.32;;;1.60;;
21825;SDS011;11075;47.944;11.776;2023-08-06T06:58:44;2.03;;;1.25;;
21825;SDS011;11075;47.944;11.776;2023-08-06T07:01:11;2.22;;;1.20;;
21825;SDS011;11075;47.944;11.776;2023-08-06T07:03:38;1.92;;;1.30;;
21825;SDS011;11075;47.944;11.776;2023-08-06T07:06:06;1.67;;;1.20;;
21825;SDS011;11075;47.944;11.776;2023-08-06T07:08:33;1.70;;;1.20;;
21825;SDS011;11075;47.944;11.776;2023-08-06T07:11:03;1.80;;;1.30;;
21825;SDS011;11075;47.944;11.776;2023-08-06T07:13:31;1.77;;;1.10;;
21825;SDS011;11075;47.944;11.776;2023-08-06T07:15:58;2.55;;;1.20;;
21825;SDS011;11075;47.944;11.776;2023-08-06T07:18:25;1.60;;;1.50;;
21825;SDS011;11075;47.944;11.776;2023-08-06T07:20:52;1.27;;;1.00;;
21825;SDS011;11075;47.944;11.776;2023-08-06T07:23:20;1.65;;;1.30;;
21825;SDS011;11075;47.944;11.776;2023-08-06T07:25:49;1.60;;;1.20;;
21825;SDS011;11075;47.944;11.776;2023-08-06T07:28:16;2.60;;;1.60;;
21825;SDS011;11075;47.944;11.776;2023-08-06T07:30:44;2.15;;;1.00;;
21825;SDS011;11075;47.944;11.776;2023-08-06T07:33:11;2.22;;;1.00;;
21825;SDS011;11075;47.944;11.776;2023-08-06T07:35:38;2.58;;;1.20;;
21825;SDS011;11075;47.944;11.776;2023-08-06T07:38:05;1.70;;;0.88;;
21825;SDS011;11075;47.944;11.776;2023-08-06T07:40:32;2.17;;;1.15;;
21825;SDS011;11075;47.944;11.776;2023-08-06T07:43:02;4.05;;;1.17;;
21825;SDS011;11075;47.944;11.776;2023-08-06T07:45:36;3.50;;;1.17;;
21825;SDS011;11075;47.944;11.776;2023-08-06T07:48:04;2.63;;;0.98;;
21825;SDS011;11075;47.944;11.776;2023-08-06T07:50:31;1.27;;;0.98;;
21825;SDS011;11075;47.944;11.776;2023-08-06T07:52:58;2.47;;;0.93;;
21825;SDS011;11075;47.944;11.776;2023-08-06T07:55:25;2.17;;;1.10;;
21825;SDS011;11075;47.944;11.776;2023-08-06T07:57:53;4.18;;;1.27;;
21825;SDS011;11075;47.944;11.776;2023-08-06T08:00:20;3.03;;;1.40;;
21825;SDS011;11075;47.944;11.776;2023-08-06T08:02:47;3.75;;;1.45;;
21825;SDS011;11075;47.944;11.776;2023-08-06T08:05:14;2.28;;;1.15;;
21825;SDS011;11075;47.944;11.776;2023-08-06T08:07:41;2.30;;;1.27;;
21825;SDS011;11075;47.944;11.776;2023-08-06T08:10:08;1.00;;;0.85;;
21825;SDS011;11075;47.944;11.776;2023-08-06T08:12:35;3.47;;;1.10;;
21825;SDS011;11075;47.944;11.776;2023-08-06T08:15:02;1.80;;;1.02;;
21825;SDS011;11075;47.944;11.776;2023-08-06T08:17:29;3.40;;;1.00;;
21825;SDS011;11075;47.944;11.776;2023-08-06T08:19:56;1.35;;;1.08;;
21825;SDS011;11075;47.944;11.776;2023-08-06T08:22:23;3.95;;;1.00;;
21825;SDS011;11075;47.944;11.776;2023-08-06T08:24:50;2.75;;;1.65;;
21825;SDS011;11075;47.944;11.776;2023-08-06T08:27:17;0.93;;;0.80;;
21825;SDS011;11075;47.944;11.776;2023-08-06T08:29:44;1.20;;;0.82;;
21825;SDS011;11075;47.944;11.776;2023-08-06T08:32:10;2.55;;;0.90;;
21825;SDS011;11075;47.944;11.776;2023-08-06T08:34:37;2.15;;;1.00;;
21825;SDS011;11075;47.944;11.776;2023-08-06T08:37:04;11.90;;;1.13;;
21825;SDS011;11075;47.944;11.776;2023-08-06T08:39:32;1.58;;;0.80;;
21825;SDS011;11075;47.944;11.776;2023-08-06T08:41:59;1.80;;;0.95;;
21825;SDS011;11075;47.944;11.776;2023-08-06T08:44:26;2.47;;;0.68;;
21825;SDS011;11075;47.944;11.776;2023-08-06T08:46:55;1.80;;;0.50;;
21825;SDS011;11075;47.944;11.776;2023-08-06T08:49:23;1.85;;;0.47;;
21825;SDS011;11075;47.944;11.776;2023-08-06T08:51:51;2.28;;;0.63;;
21825;SDS011;11075;47.944;11.776;2023-08-06T08:54:21;1.13;;;0.43;;
21825;SDS011;11075;47.944;11.776;2023-08-06T08:56:50;1.65;;;0.40;;
21825;SDS011;11075;47.944;11.776;2023-08-06T08:59:17;0.98;;;0.50;;
21825;SDS011;11075;47.944;11.776;2023-08-06T09:01:44;0.73;;;0.30;;
21825;SDS011;11075;47.944;11.776;2023-08-06T09:04:18;0.13;;;0.13;;
21825;SDS011;11075;47.944;11.776;2023-08-06T09:06:50;0.90;;;0.70;;
21825;SDS011;11075;47.944;11.776;2023-08-06T09:09:21;1.00;;;0.30;;
21825;SDS011;11075;47.944;11.776;2023-08-06T09:11:51;0.30;;;0.22;;
21825;SDS011;11075;47.944;11.776;2023-08-06T09:14:21;1.08;;;0.30;;
21825;SDS011;11075;47.944;11.776;2023-08-06T09:16:48;0.50;;;0.20;;
21825;SDS011;11075;47.944;11.776;2023-08-06T09:19:15;1.27;;;0.28;;
21825;SDS011;11075;47.944;11.776;2023-08-06T09:21:44;2.63;;;0.20;;
21825;SDS011;11075;47.944;11.776;2023-08-06T09:24:15;0.88;;;0.30;;
21825;SDS011;11075;47.944;11.776;2023-08-06T09:26:43;2.63;;;0.20;;
21825;SDS011;11075;47.944;11.776;2023-08-06T09:29:11;0.30;;;0.10;;
21825;SDS011;11075;47.944;11.776;2023-08-06T09:31:45;0.20;;;0.10;;
21825;SDS011;11075;47.944;11.776;2023-08-06T09:34:16;0.20;;;0.20;;
21825;SDS011;11075;47.944;11.776;2023-08-06T09:36:49;1.27;;;0.15;;
21825;SDS011;11075;47.944;11.776;2023-08-06T09:39:26;2.05;;;0.20;;
21825;SDS011;11075;47.944;11.776;2023-08-06T09:41:58;0.40;;;0.20;;
21825;SDS011;11075;47.944;11.776;2023-08-06T09:44:26;1.55;;;0.38;;
21825;SDS011;11075;47.944;11.776;2023-08-06T09:46:54;2.75;;;0.20;;
21825;SDS011;11075;47.944;11.776;2023-08-06T09:49:26;0.38;;;0.22;;
21825;SDS011;11075;47.944;11.776;2023-08-06T09:51:56;0.52;;;0.20;;
21825;SDS011;11075;47.944;11.776;2023-08-06T09:54:25;1.02;;;0.20;;
21825;SDS011;11075;47.944;11.776;2023-08-06T09:56:54;0.85;;;0.22;;
21825;SDS011;11075;47.944;11.776;2023-08-06T09:59:24;1.55;;;0.20;;
21825;SDS011;11075;47.944;11.776;2023-08-06T10:01:52;0.25;;;0.20;;
21825;SDS011;11075;47.944;11.776;2023-08-06T10:04:22;0.68;;;0.20;;
21825;SDS011;11075;47.944;11.776;2023-08-06T10:06:56;1.75;;;0.10;;
21825;SDS011;11075;47.944;11.776;2023-08-06T10:09:23;1.80;;;0.20;;
21825;SDS011;11075;47.944;11.776;2023-08-06T10:11:51;0.55;;;0.40;;
21825;SDS011;11075;47.944;11.776;2023-08-06T10:14:25;0.20;;;0.10;;
21825;SDS011;11075;47.944;11.776;2023-08-06T10:16:57;0.10;;;0.10;;
21825;SDS011;11075;47.944;11.776;2023-08-06T10:19:25;1.05;;;0.20;;
21825;SDS011;11075;47.944;11.776;2023-08-06T10:24:46;1.77;;;0.20;;
21825;SDS011;11075;47.944;11.776;2023-08-06T10:27:18;0.10;;;0.10;;
21825;SDS011;11075;47.944;11.776;2023-08-06T10:32:58;0.75;;;0.13;;
21825;SDS011;11075;47.944;11.776;2023-08-06T10:35:31;0.60;;;0.15;;
21825;SDS011;11075;47.944;11.776;2023-08-06T10:38:18;2.17;;;0.10;;
21825;SDS011;11075;47.944;11.776;2023-08-06T10:43:29;0.10;;;0.10;;
21825;SDS011;11075;47.944;11.776;2023-08-06T10:45:57;0.10;;;0.00;;
21825;SDS011;11075;47.944;11.776;2023-08-06T10:48:38;0.00;;;0.00;;
21825;SDS011;11075;47.944;11.776;2023-08-06T10:51:10;1.38;;;0.10;;
21825;SDS011;11075;47.944;11.776;2023-08-06T10:53:42;0.00;;;0.00;;
21825;SDS011;11075;47.944;11.776;2023-08-06T10:56:13;0.10;;;0.10;;
21825;SDS011;11075;47.944;11.776;2023-08-06T10:58:50;0.10;;;0.10;;
21825;SDS011;11075;47.944;11.776;2023-08-06T11:01:23;0.30;;;0.10;;
21825;SDS011;11075;47.944;11.776;2023-08-06T11:03:50;0.15;;;0.00;;
21825;SDS011;11075;47.944;11.776;2023-08-06T11:06:20;0.30;;;0.20;;
21825;SDS011;11075;47.944;11.776;2023-08-06T11:08:52;2.72;;;0.10;;
21825;SDS011;11075;47.944;11.776;2023-08-06T11:11:21;0.20;;;0.20;;
21825;SDS011;11075;47.944;11.776;2023-08-06T11:13:49;0.20;;;0.00;;
21825;SDS011;11075;47.944;11.776;2023-08-06T11:16:18;0.57;;;0.17;;
21825;SDS011;11075;47.944;11.776;2023-08-06T11:18:47;0.20;;;0.00;;
21825;SDS011;11075;47.944;11.776;2023-08-06T11:21:14;0.70;;;0.10;;
21825;SDS011;11075;47.944;11.776;2023-08-06T11:23:41;0.00;;;0.00;;
21825;SDS011;11075;47.944;11.776;2023-08-06T11:26:08;0.15;;;0.10;;
21825;SDS011;11075;47.944;11.776;2023-08-06T11:28:35;0.10;;;0.10;;
21825;SDS011;11075;47.944;11.776;2023-08-06T11:31:02;0.00;;;0.00;;
21825;SDS011;11075;47.944;11.776;2023-08-06T11:33:30;0.22;;;0.10;;
21825;SDS011;11075;47.944;11.776;2023-08-06T11:35:59;0.00;;;0.00;;
21825;SDS011;11075;47.944;11.776;2023-08-06T11:38:30;0.40;;;0.10;;
21825;SDS011;11075;47.944;11.776;2023-08-06T11:40:58;0.00;;;0.00;;
21825;SDS011;11075;47.944;11.776;2023-08-06T11:43:25;0.35;;;0.10;;
21825;SDS011;11075;47.944;11.776;2023-08-06T11:45:54;0.00;;;0.00;;
21825;SDS011;11075;47.944;11.776;2023-08-06T11:48:22;0.17;;;0.00;;
21825;SDS011;11075;47.944;11.776;2023-08-06T11:50:49;0.10;;;0.10;;
21825;SDS011;11075;47.944;11.776;2023-08-06T11:53:15;0.10;;;0.10;;
21825;SDS011;11075;47.944;11.776;2023-08-06T11:55:42;0.43;;;0.10;;
21825;SDS011;11075;47.944;11.776;2023-08-06T11:58:10;0.15;;;0.10;;
21825;SDS011;11075;47.944;11.776;2023-08-06T12:00:38;0.13;;;0.08;;
21825;SDS011;11075;47.944;11.776;2023-08-06T12:03:05;3.17;;;0.15;;
21825;SDS011;11075;47.944;11.776;2023-08-06T12:05:32;0.08;;;0.03;;
21825;SDS011;11075;47.944;11.776;2023-08-06T12:08:00;0.80;;;0.10;;
21825;SDS011;11075;47.944;11.776;2023-08-06T12:10:31;1.88;;;0.00;;
21825;SDS011;11075;47.944;11.776;2023-08-06T12:12:59;0.25;;;0.10;;
21825;SDS011;11075;47.944;11.776;2023-08-06T12:15:26;0.77;;;0.20;;
21825;SDS011;11075;47.944;11.776;2023-08-06T12:17:54;0.15;;;0.15;;
21825;SDS011;11075;47.944;11.776;2023-08-06T12:20:21;0.43;;;0.08;;
21825;SDS011;11075;47.944;11.776;2023-08-06T12:22:48;0.00;;;0.00;;
21825;SDS011;11075;47.944;11.776;2023-08-06T12:25:15;0.00;;;0.00;;
21825;SDS011;11075;47.944;11.776;2023-08-06T12:27:42;0.55;;;0.00;;
21825;SDS011;11075;47.944;11.776;2023-08-06T12:30:11;0.20;;;0.00;;
21825;SDS011;11075;47.944;11.776;2023-08-06T12:32:39;0.17;;;0.10;;
21825;SDS011;11075;47.944;11.776;2023-08-06T12:35:06;0.00;;;0.00;;
21825;SDS011;11075;47.944;11.776;2023-08-06T12:37:34;0.00;;;0.00;;
21825;SDS011;11075;47.944;11.776;2023-08-06T12:40:01;0.00;;;0.00;;
21825;SDS011;11075;47.944;11.776;2023-08-06T12:42:52;0.03;;;0.03;;
21825;SDS011;11075;47.944;11.776;2023-08-06T12:45:19;0.10;;;0.10;;
21825;SDS011;11075;47.944;11.776;2023-08-06T12:47:49;0.10;;;0.10;;
21825;SDS011;11075;47.944;11.776;2023-08-06T12:50:17;0.10;;;0.10;;
21825;SDS011;11075;47.944;11.776;2023-08-06T12:52:44;1.27;;;0.10;;
21825;SDS011;11075;47.944;11.776;2023-08-06T12:55:11;1.05;;;0.00;;
21825;SDS011;11075;47.944;11.776;2023-08-06T12:57:38;0.10;;;0.00;;
21825;SDS011;11075;47.944;11.776;2023-08-06T13:00:24;0.00;;;0.00;;
21825;SDS011;11075;47.944;11.776;2023-08-06T13:02:52;0.10;;;0.10;;
21825;SDS011;11075;47.944;11.776;2023-08-06T13:05:19;3.60;;;0.10;;
21825;SDS011;11075;47.944;11.776;2023-08-06T13:07:46;0.00;;;0.00;;
21825;SDS011;11075;47.944;11.776;2023-08-06T13:10:13;0.85;;;0.10;;
21825;SDS011;11075;47.944;11.776;2023-08-06T13:12:40;0.20;;;0.10;;
21825;SDS011;11075;47.944;11.776;2023-08-06T13:15:07;0.38;;;0.05;;
21825;SDS011;11075;47.944;11.776;2023-08-06T13:17:34;0.00;;;0.00;;
21825;SDS011;11075;47.944;11.776;2023-08-06T13:20:02;1.17;;;0.10;;
21825;SDS011;11075;47.944;11.776;2023-08-06T13:22:29;0.32;;;0.10;;
21825;SDS011;11075;47.944;11.776;2023-08-06T13:24:56;0.15;;;0.03;;
21825;SDS011;11075;47.944;11.776;2023-08-06T13:27:23;0.65;;;0.10;;
21825;SDS011;11075;47.944;11.776;2023-08-06T13:29:49;4.75;;;0.22;;
21825;SDS011;11075;47.944;11.776;2023-08-06T13:32:16;0.38;;;0.10;;
21825;SDS011;11075;47.944;11.776;2023-08-06T13:34:43;0.10;;;0.10;;
21825;SDS011;11075;47.944;11.776;2023-08-06T13:37:10;1.02;;;0.17;;
21825;SDS011;11075;47.944;11.776;2023-08-06T13:39:37;0.10;;;0.10;;
21825;SDS011;11075;47.944;11.776;2023-08-06T13:42:04;0.40;;;0.10;;
21825;SDS011;11075;47.944;11.776;2023-08-06T13:44:31;0.50;;;0.10;;
21825;SDS011;11075;47.944;11.776;2023-08-06T13:47:02;0.03;;;0.03;;
21825;SDS011;11075;47.944;11.776;2023-08-06T13:49:29;0.73;;;0.10;;
21825;SDS011;11075;47.944;11.776;2023-08-06T13:51:56;0.40;;;0.20;;
21825;SDS011;11075;47.944;11.776;2023-08-06T13:54:37;0.35;;;0.10;;
21825;SDS011;11075;47.944;11.776;2023-08-06T13:57:04;0.47;;;0.10;;
21825;SDS011;11075;47.944;11.776;2023-08-06T13:59:31;0.30;;;0.00;;
21825;SDS011;11075;47.944;11.776;2023-08-06T14:01:58;0.10;;;0.10;;
21825;SDS011;11075;47.944;11.776;2023-08-06T14:04:26;0.08;;;0.00;;
21825;SDS011;11075;47.944;11.776;2023-08-06T14:06:53;0.30;;;0.10;;
21825;SDS011;11075;47.944;11.776;2023-08-06T14:09:20;0.75;;;0.10;;
21825;SDS011;11075;47.944;11.776;2023-08-06T14:11:47;0.00;;;0.00;;
21825;SDS011;11075;47.944;11.776;2023-08-06T14:14:14;2.72;;;0.10;;
21825;SDS011;11075;47.944;11.776;2023-08-06T14:16:41;0.10;;;0.10;;
21825;SDS011;11075;47.944;11.776;2023-08-06T14:19:08;0.10;;;0.10;;
21825;SDS011;11075;47.944;11.776;2023-08-06T14:21:35;0.77;;;0.10;;
21825;SDS011;11075;47.944;11.776;2023-08-06T14:24:02;0.10;;;0.10;;
21825;SDS011;11075;47.944;11.776;2023-08-06T14:26:30;0.20;;;0.10;;
21825;SDS011;11075;47.944;11.776;2023-08-06T14:28:57;0.22;;;0.10;;
21825;SDS011;11075;47.944;11.776;2023-08-06T14:31:23;0.47;;;0.10;;
21825;SDS011;11075;47.944;11.776;2023-08-06T14:33:50;1.30;;;0.20;;
21825;SDS011;11075;47.944;11.776;2023-08-06T14:36:18;0.30;;;0.10;;
21825;SDS011;11075;47.944;11.776;2023-08-06T14:38:45;0.60;;;0.20;;
21825;SDS011;11075;47.944;11.776;2023-08-06T14:41:25;0.63;;;0.20;;
21825;SDS011;11075;47.944;11.776;2023-08-06T14:43:52;1.02;;;0.10;;
21825;SDS011;11075;47.944;11.776;2023-08-06T14:46:20;0.00;;;0.00;;
21825;SDS011;11075;47.944;11.776;2023-08-06T14:48:47;2.65;;;0.20;;
21825;SDS011;11075;47.944;11.776;2023-08-06T14:51:14;0.10;;;0.10;;